createdAt,value
2023-01-03T00:01:37.881Z,14.30
2023-01-03T00:04:04.797Z,14.41
2023-01-03T00:06:33.504Z,14.36
2023-01-03T00:09:01.712Z,14.34
2023-01-03T00:11:30.290Z,14.36
2023-01-03T00:13:57.137Z,14.39
2023-01-03T00:16:23.765Z,14.40
2023-01-03T00:18:50.374Z,14.43
2023-01-03T00:21:16.974Z,14.47
2023-01-03T00:23:43.663Z,14.54
2023-01-03T00:26:11.244Z,14.47
2023-01-03T00:28:37.932Z,14.44
2023-01-03T00:31:11.597Z,14.45
2023-01-03T00:33:39.094Z,14.41
2023-01-03T00:36:07.864Z,14.35
2023-01-03T00:38:35.037Z,14.38
2023-01-03T00:41:09.425Z,14.35
2023-01-03T00:43:36.124Z,14.49
2023-01-03T00:46:02.852Z,14.50
2023-01-03T00:48:29.530Z,14.40
2023-01-03T00:50:56.159Z,14.36
2023-01-03T00:53:22.904Z,14.41
2023-01-03T00:55:49.764Z,14.56
2023-01-03T00:58:16.474Z,14.65
2023-01-03T01:00:43.083Z,14.60
2023-01-03T01:03:09.836Z,14.64
2023-01-03T01:05:36.551Z,14.60
2023-01-03T01:08:03.203Z,14.62
2023-01-03T01:10:29.792Z,14.54
2023-01-03T01:12:56.446Z,14.52
2023-01-03T01:15:23.080Z,14.39
2023-01-03T01:17:49.720Z,14.40
2023-01-03T01:20:16.411Z,14.40
2023-01-03T01:22:43.119Z,14.50
2023-01-03T01:25:09.755Z,14.50
2023-01-03T01:27:36.360Z,14.51
2023-01-03T01:30:03.113Z,14.54
2023-01-03T01:32:30.634Z,14.52
2023-01-03T01:34:57.283Z,14.43
2023-01-03T01:37:23.948Z,14.45
2023-01-03T01:39:50.569Z,14.35
2023-01-03T01:42:20.226Z,14.36
2023-01-03T01:44:55.395Z,14.22
2023-01-03T01:47:44.349Z,14.30
2023-01-03T01:50:32.717Z,14.30
2023-01-03T01:53:10.201Z,14.35
2023-01-03T01:55:47.135Z,14.38
2023-01-03T01:58:13.795Z,14.41
2023-01-03T02:00:41.576Z,14.40
2023-01-03T02:03:08.336Z,14.40
2023-01-03T02:05:36.772Z,14.34
2023-01-03T02:08:03.558Z,14.31
2023-01-03T02:10:58.976Z,14.21
2023-01-03T02:13:33.813Z,14.23
2023-01-03T02:16:03.128Z,14.21
2023-01-03T02:18:29.711Z,14.14
2023-01-03T02:21:23.645Z,14.12
2023-01-03T02:24:25.368Z,14.05
2023-01-03T02:26:51.880Z,14.11
2023-01-03T02:29:25.552Z,14.10
2023-01-03T02:31:58.013Z,14.09
2023-01-03T02:34:29.833Z,14.07
2023-01-03T02:36:59.160Z,14.13
2023-01-03T02:39:34.115Z,14.00
2023-01-03T02:42:16.313Z,14.02
2023-01-03T02:45:12.378Z,13.98
2023-01-03T02:47:58.037Z,13.92
2023-01-03T02:50:26.122Z,13.92
2023-01-03T02:52:53.396Z,13.97
2023-01-03T02:55:21.947Z,13.93
2023-01-03T02:58:09.027Z,13.99
2023-01-03T03:00:39.246Z,14.05
2023-01-03T03:03:06.737Z,14.01
2023-01-03T03:05:38.100Z,14.01
2023-01-03T03:08:04.829Z,13.94
2023-01-03T03:10:31.429Z,13.96
2023-01-03T03:13:15.879Z,14.07
2023-01-03T03:15:59.149Z,14.13
2023-01-03T03:18:35.763Z,14.11
2023-01-03T03:21:02.363Z,14.03
2023-01-03T03:23:30.056Z,14.09
2023-01-03T03:26:02.782Z,13.98
2023-01-03T03:28:32.026Z,14.03
2023-01-03T03:31:01.965Z,14.04
2023-01-03T03:33:30.503Z,14.04
2023-01-03T03:36:00.346Z,14.10
2023-01-03T03:38:34.901Z,14.06
2023-01-03T03:41:46.211Z,14.08
2023-01-03T03:44:30.916Z,14.15
2023-01-03T03:47:04.091Z,14.19
2023-01-03T03:49:31.167Z,14.08
2023-01-03T03:51:58.454Z,14.17
2023-01-03T03:54:25.073Z,14.12
2023-01-03T03:57:10.626Z,14.04
2023-01-03T03:59:37.381Z,14.07
2023-01-03T04:02:04.223Z,14.03
2023-01-03T04:04:38.723Z,14.04
2023-01-03T04:07:05.394Z,14.00
2023-01-03T04:09:32.057Z,14.01
2023-01-03T04:11:58.697Z,14.00
2023-01-03T04:14:25.326Z,13.99
2023-01-03T04:16:51.964Z,13.96
2023-01-03T04:19:18.629Z,13.99
2023-01-03T04:21:45.268Z,13.98
2023-01-03T04:24:11.921Z,14.02
2023-01-03T04:26:38.584Z,13.95
2023-01-03T04:29:05.256Z,14.00
2023-01-03T04:31:31.923Z,14.05
2023-01-03T04:33:58.584Z,13.93
2023-01-03T04:36:25.196Z,13.99
2023-01-03T04:38:51.827Z,13.99
2023-01-03T04:41:18.569Z,14.03
2023-01-03T04:43:45.191Z,13.98
2023-01-03T04:46:12.334Z,13.99
2023-01-03T04:48:39.000Z,13.91
2023-01-03T04:51:05.720Z,13.89
2023-01-03T04:53:32.354Z,13.94
2023-01-03T04:55:59.276Z,13.94
2023-01-03T04:58:25.949Z,13.86
2023-01-03T05:00:52.658Z,13.88
2023-01-03T05:03:24.116Z,13.89
2023-01-03T05:05:58.417Z,13.80
2023-01-03T05:08:25.016Z,13.76
2023-01-03T05:10:52.006Z,13.69
2023-01-03T05:13:18.650Z,13.73
2023-01-03T05:15:45.416Z,13.68
2023-01-03T05:18:12.012Z,13.71
2023-01-03T05:20:38.806Z,13.67
2023-01-03T05:23:05.451Z,13.71
2023-01-03T05:25:32.056Z,13.73
2023-01-03T05:27:58.651Z,13.79
2023-01-03T05:30:25.248Z,13.74
2023-01-03T05:32:51.893Z,13.75
2023-01-03T05:35:18.650Z,13.72
2023-01-03T05:37:45.293Z,13.77
2023-01-03T05:40:12.156Z,13.74
2023-01-03T05:42:38.778Z,13.74
2023-01-03T05:45:05.895Z,13.65
2023-01-03T05:47:32.504Z,13.65
2023-01-03T05:49:59.164Z,13.60
2023-01-03T05:52:25.890Z,13.61
2023-01-03T05:54:52.503Z,13.60
2023-01-03T05:57:19.099Z,13.63
2023-01-03T05:59:45.696Z,13.61
2023-01-03T06:02:12.390Z,13.61
2023-01-03T06:04:39.209Z,13.62
2023-01-03T06:07:05.895Z,13.61
2023-01-03T06:09:32.537Z,13.59
2023-01-03T06:11:59.172Z,13.43
2023-01-03T06:14:25.815Z,13.54
2023-01-03T06:16:52.516Z,13.61
2023-01-03T06:19:19.263Z,13.57
2023-01-03T06:21:45.925Z,13.58
2023-01-03T06:24:12.587Z,13.63
2023-01-03T06:26:39.251Z,13.55
2023-01-03T06:29:05.894Z,13.46
2023-01-03T06:31:32.651Z,13.54
2023-01-03T06:33:59.315Z,13.52
2023-01-03T06:36:25.892Z,13.49
2023-01-03T06:38:53.377Z,13.42
2023-01-03T06:41:20.042Z,13.57
2023-01-03T06:43:46.704Z,13.45
2023-01-03T06:46:13.583Z,13.48
2023-01-03T06:48:40.265Z,13.48
2023-01-03T06:51:09.144Z,13.48
2023-01-03T06:53:39.479Z,13.52
2023-01-03T06:56:06.410Z,13.59
2023-01-03T06:58:33.206Z,13.50
2023-01-03T07:01:01.313Z,13.57
2023-01-03T07:03:27.947Z,13.53
2023-01-03T07:05:54.596Z,13.52
2023-01-03T07:08:21.178Z,13.51
2023-01-03T07:10:47.780Z,13.50
2023-01-03T07:13:14.473Z,13.56
2023-01-03T07:15:44.805Z,13.46
2023-01-03T07:18:11.562Z,13.52
2023-01-03T07:20:44.657Z,13.52
2023-01-03T07:23:11.783Z,13.57
2023-01-03T07:25:38.428Z,13.50
2023-01-03T07:28:08.023Z,13.52
2023-01-03T07:30:39.569Z,13.56
2023-01-03T07:33:06.567Z,13.48
2023-01-03T07:35:34.522Z,13.52
2023-01-03T07:38:01.589Z,13.46
2023-01-03T07:40:28.459Z,13.48
2023-01-03T07:42:55.099Z,13.52
2023-01-03T07:45:21.711Z,13.52
2023-01-03T07:47:48.320Z,13.49
2023-01-03T07:50:14.929Z,13.54
2023-01-03T07:52:41.519Z,13.56
2023-01-03T07:55:08.401Z,13.56
2023-01-03T07:57:35.046Z,13.55
2023-01-03T08:00:01.760Z,13.59
2023-01-03T08:02:28.512Z,13.59
2023-01-03T08:04:55.332Z,13.58
2023-01-03T08:07:22.021Z,13.59
2023-01-03T08:09:49.704Z,13.54
2023-01-03T08:12:16.439Z,13.48
2023-01-03T08:14:43.131Z,13.49
2023-01-03T08:17:09.773Z,13.65
2023-01-03T08:19:41.710Z,13.64
2023-01-03T08:22:11.844Z,13.70
2023-01-03T08:24:38.436Z,13.76
2023-01-03T08:27:05.069Z,13.67
2023-01-03T08:29:31.670Z,13.77
2023-01-03T08:31:58.332Z,13.84
2023-01-03T08:34:29.737Z,13.92
2023-01-03T08:37:01.075Z,13.97
2023-01-03T08:39:28.903Z,13.96
2023-01-03T08:41:59.273Z,13.93
2023-01-03T08:44:25.967Z,14.03
2023-01-03T08:46:53.629Z,13.99
2023-01-03T08:49:20.310Z,14.00
2023-01-03T08:51:46.992Z,13.90
2023-01-03T08:54:13.603Z,13.86
2023-01-03T08:56:40.204Z,13.76
2023-01-03T08:59:06.856Z,13.80
2023-01-03T09:01:33.603Z,13.91
2023-01-03T09:04:00.350Z,14.01
2023-01-03T09:06:27.639Z,14.03
2023-01-03T09:08:54.307Z,14.01
2023-01-03T09:11:20.991Z,13.99
2023-01-03T09:13:47.702Z,14.04
2023-01-03T09:16:14.531Z,14.08
2023-01-03T09:18:41.254Z,14.20
2023-01-03T09:21:07.969Z,14.21
2023-01-03T09:23:34.890Z,14.24
2023-01-03T09:26:01.663Z,14.25
2023-01-03T09:28:28.469Z,14.24
2023-01-03T09:30:55.205Z,14.32
2023-01-03T09:33:21.808Z,14.32
2023-01-03T09:35:48.390Z,14.26
2023-01-03T09:38:14.974Z,14.27
2023-01-03T09:40:43.307Z,14.31
2023-01-03T09:43:19.764Z,14.35
2023-01-03T09:45:51.630Z,14.33
2023-01-03T09:48:20.741Z,14.43
2023-01-03T09:53:36.780Z,14.41
2023-01-03T09:56:03.535Z,14.41
2023-01-03T09:58:30.196Z,14.45
2023-01-03T10:00:56.883Z,14.43
2023-01-03T10:03:26.574Z,14.46
2023-01-03T10:06:19.625Z,14.50
2023-01-03T10:09:17.450Z,14.52
2023-01-03T10:11:46.967Z,14.48
2023-01-03T10:14:26.903Z,14.38
2023-01-03T10:17:02.877Z,14.33
2023-01-03T10:19:49.729Z,14.33
2023-01-03T10:22:21.512Z,14.37
2023-01-03T10:25:12.276Z,14.42
2023-01-03T10:27:46.795Z,14.38
2023-01-03T10:30:35.266Z,14.37
2023-01-03T10:33:32.211Z,14.34
2023-01-03T10:35:59.025Z,14.33
2023-01-03T10:38:25.765Z,14.31
2023-01-03T10:41:02.510Z,14.29
2023-01-03T10:43:36.280Z,14.21
2023-01-03T10:46:12.530Z,14.28
2023-01-03T10:49:16.912Z,14.24
2023-01-03T10:51:40.093Z,14.21
2023-01-03T10:54:18.147Z,14.16
2023-01-03T10:56:48.087Z,14.22
2023-01-03T10:59:20.378Z,14.20
2023-01-03T11:01:59.298Z,14.21
2023-01-03T11:04:26.341Z,14.22
2023-01-03T11:07:19.243Z,14.27
2023-01-03T11:09:55.270Z,14.30
2023-01-03T11:12:28.304Z,14.28
2023-01-03T11:14:55.762Z,14.32
2023-01-03T11:17:23.091Z,14.27
2023-01-03T11:19:50.231Z,14.25
2023-01-03T11:22:38.213Z,14.21
2023-01-03T11:25:26.287Z,14.23
2023-01-03T11:27:55.281Z,14.28
2023-01-03T11:30:27.740Z,14.26
2023-01-03T11:33:27.261Z,14.16
2023-01-03T11:36:05.758Z,14.18
2023-01-03T11:38:38.091Z,14.21
2023-01-03T11:41:22.867Z,14.22
2023-01-03T11:44:17.364Z,14.33
2023-01-03T11:47:03.038Z,14.35
2023-01-03T11:49:46.985Z,14.33
2023-01-03T11:52:20.910Z,14.33
2023-01-03T11:55:09.263Z,14.34
2023-01-03T11:58:03.769Z,14.45
2023-01-03T12:00:56.571Z,14.41
2023-01-03T12:03:57.186Z,14.46
2023-01-03T12:06:29.813Z,14.43
2023-01-03T12:09:04.535Z,14.48
2023-01-03T12:11:52.151Z,14.53
2023-01-03T12:14:26.380Z,14.49
2023-01-03T12:16:59.990Z,14.58
2023-01-03T12:19:26.493Z,14.52
2023-01-03T12:22:12.655Z,14.54
2023-01-03T12:24:43.416Z,14.52
2023-01-03T12:27:35.936Z,14.51
2023-01-03T12:30:27.024Z,14.49
2023-01-03T12:33:37.067Z,14.50
2023-01-03T12:36:34.132Z,14.51
2023-01-03T12:39:10.298Z,14.52
2023-01-03T12:41:42.252Z,14.53
2023-01-03T12:44:20.939Z,14.42
2023-01-03T12:46:50.077Z,14.42
2023-01-03T12:49:35.661Z,14.48
2023-01-03T12:52:02.474Z,14.32
2023-01-03T12:54:42.343Z,14.30
2023-01-03T12:57:20.972Z,14.37
2023-01-03T12:59:57.751Z,14.40
2023-01-03T13:02:42.698Z,14.49
2023-01-03T13:05:16.881Z,14.50
2023-01-03T13:08:03.649Z,14.56
2023-01-03T13:10:31.779Z,14.62
2023-01-03T13:12:58.435Z,14.70
2023-01-03T13:15:36.251Z,14.67
2023-01-03T13:18:30.777Z,14.72
2023-01-03T13:20:57.445Z,14.68
2023-01-03T13:23:29.953Z,14.73
2023-01-03T13:26:05.571Z,14.66
2023-01-03T13:28:38.452Z,14.63
2023-01-03T13:31:14.516Z,14.67
2023-01-03T13:34:15.284Z,14.60
2023-01-03T13:37:06.647Z,14.58
2023-01-03T13:39:51.255Z,14.49
2023-01-03T13:42:28.079Z,14.50
2023-01-03T13:45:06.267Z,14.56
2023-01-03T13:47:39.295Z,14.58
2023-01-03T13:50:17.397Z,14.65
2023-01-03T13:53:11.521Z,14.72
2023-01-03T13:55:49.187Z,14.72
2023-01-03T13:58:32.337Z,14.71
2023-01-03T14:01:05.551Z,14.67
2023-01-03T14:03:55.514Z,14.71
2023-01-03T14:06:37.330Z,14.71
2023-01-03T14:09:22.067Z,14.70
2023-01-03T14:12:02.084Z,14.68
2023-01-03T14:14:28.734Z,14.65
2023-01-03T14:16:55.357Z,14.67
2023-01-03T14:19:23.941Z,14.63
2023-01-03T14:21:55.258Z,14.62
2023-01-03T14:24:31.575Z,14.57
2023-01-03T14:27:17.219Z,14.50
2023-01-03T14:29:48.833Z,14.47
2023-01-03T14:32:25.448Z,14.38
2023-01-03T14:34:55.575Z,14.37
2023-01-03T14:37:23.887Z,14.31
2023-01-03T14:39:58.096Z,14.32
2023-01-03T14:42:24.866Z,14.25
2023-01-03T14:45:01.482Z,14.25
2023-01-03T14:47:31.041Z,14.21
2023-01-03T14:49:57.679Z,14.27
2023-01-03T14:52:30.601Z,14.20
2023-01-03T14:55:03.667Z,14.30
2023-01-03T14:57:31.143Z,14.20
2023-01-03T14:59:58.437Z,14.05
2023-01-03T15:02:25.254Z,14.18
2023-01-03T15:04:54.267Z,14.15
2023-01-03T15:07:29.800Z,14.12
2023-01-03T15:10:12.884Z,14.15
2023-01-03T15:12:44.305Z,14.01
2023-01-03T15:15:22.604Z,14.15
2023-01-03T15:17:51.121Z,14.09
2023-01-03T15:20:19.438Z,14.11
2023-01-03T15:22:46.042Z,14.14
2023-01-03T15:25:20.453Z,14.03
2023-01-03T15:27:48.862Z,14.06
2023-01-03T15:30:15.847Z,14.05
2023-01-03T15:32:59.191Z,13.99
2023-01-03T15:35:37.532Z,14.02
2023-01-03T15:38:07.320Z,14.04
2023-01-03T15:40:33.903Z,13.70
2023-01-03T15:43:04.388Z,13.83
2023-01-03T15:45:38.430Z,13.85
2023-01-03T15:48:13.487Z,13.84
2023-01-03T15:50:48.645Z,13.84
2023-01-03T15:53:22.772Z,13.84
2023-01-03T15:55:50.473Z,13.84
2023-01-03T15:58:17.156Z,13.89
2023-01-03T16:00:43.885Z,13.75
2023-01-03T16:03:17.264Z,13.86
2023-01-03T16:05:44.475Z,13.87
2023-01-03T16:08:36.133Z,13.76
2023-01-03T16:11:04.579Z,13.78
2023-01-03T16:13:39.165Z,13.74
2023-01-03T16:16:06.108Z,13.83
2023-01-03T16:18:39.367Z,13.81
2023-01-03T16:21:06.116Z,13.77
2023-01-03T16:23:33.612Z,13.78
2023-01-03T16:26:00.375Z,13.75
2023-01-03T16:28:27.154Z,13.83
2023-01-03T16:31:12.866Z,13.81
2023-01-03T16:33:39.518Z,13.81
2023-01-03T16:36:06.367Z,13.78
2023-01-03T16:38:33.449Z,13.76
2023-01-03T16:41:00.188Z,13.70
2023-01-03T16:43:26.863Z,13.71
2023-01-03T16:45:54.313Z,13.76
2023-01-03T16:48:21.802Z,13.69
2023-01-03T16:50:48.494Z,13.68
2023-01-03T16:53:36.635Z,13.57
2023-01-03T16:56:04.024Z,13.55
2023-01-03T16:58:30.659Z,13.58
2023-01-03T17:00:57.612Z,13.45
2023-01-03T17:03:24.486Z,13.45
2023-01-03T17:05:51.203Z,13.46
2023-01-03T17:08:21.741Z,13.47
2023-01-03T17:10:49.472Z,13.45
2023-01-03T17:13:42.211Z,13.35
2023-01-03T17:16:19.631Z,13.26
2023-01-03T17:18:46.349Z,13.14
2023-01-03T17:21:28.958Z,13.10
2023-01-03T17:24:06.298Z,13.14
2023-01-03T17:26:33.814Z,13.19
2023-01-03T17:29:01.652Z,13.16
2023-01-03T17:31:28.526Z,13.20
2023-01-03T17:33:55.244Z,13.19
2023-01-03T17:36:26.454Z,13.20
2023-01-03T17:38:53.604Z,13.18
2023-01-03T17:41:21.809Z,13.18
2023-01-03T17:43:48.419Z,13.20
2023-01-03T17:46:24.138Z,13.16
2023-01-03T17:48:50.949Z,13.22
2023-01-03T17:51:17.707Z,13.22
2023-01-03T17:53:44.420Z,13.22
2023-01-03T17:56:19.413Z,13.23
2023-01-03T17:58:53.896Z,13.20
2023-01-03T18:01:22.835Z,13.19
2023-01-03T18:03:49.593Z,13.24
2023-01-03T18:06:19.036Z,13.29
2023-01-03T18:08:45.838Z,13.33
2023-01-03T18:11:20.236Z,13.34
2023-01-03T18:13:47.059Z,13.30
2023-01-03T18:16:15.937Z,13.37
2023-01-03T18:18:42.617Z,13.42
2023-01-03T18:21:23.096Z,13.41
2023-01-03T18:24:04.304Z,13.41
2023-01-03T18:26:33.592Z,13.37
2023-01-03T18:29:00.532Z,13.43
2023-01-03T18:31:27.212Z,13.52
2023-01-03T18:33:53.995Z,13.52
2023-01-03T18:36:28.049Z,13.45
2023-01-03T18:39:15.989Z,13.35
2023-01-03T18:41:42.606Z,13.48
2023-01-03T18:44:23.139Z,13.45
2023-01-03T18:46:50.495Z,13.44
2023-01-03T18:49:17.232Z,13.33
2023-01-03T18:51:43.929Z,13.38
2023-01-03T18:54:13.823Z,13.39
2023-01-03T18:56:40.500Z,13.36
2023-01-03T18:59:18.141Z,13.38
2023-01-03T19:01:44.914Z,13.33
2023-01-03T19:04:11.673Z,13.41
2023-01-03T19:06:41.904Z,13.38
2023-01-03T19:09:20.842Z,13.30
2023-01-03T19:11:48.106Z,13.32
2023-01-03T19:14:14.717Z,13.25
2023-01-03T19:16:41.438Z,13.25
2023-01-03T19:19:08.215Z,13.24
2023-01-03T19:21:42.007Z,13.28
2023-01-03T19:24:39.449Z,13.29
2023-01-03T19:27:10.417Z,13.39
2023-01-03T19:29:37.201Z,13.38
2023-01-03T19:32:05.595Z,13.40
2023-01-03T19:34:32.279Z,13.48
2023-01-03T19:36:58.955Z,13.44
2023-01-03T19:39:27.964Z,13.36
2023-01-03T19:41:57.408Z,13.33
2023-01-03T19:44:24.883Z,13.29
2023-01-03T19:46:51.594Z,13.25
2023-01-03T19:49:18.270Z,13.23
2023-01-03T19:51:45.001Z,13.20
2023-01-03T19:54:11.638Z,13.16
2023-01-03T19:56:38.263Z,13.09
2023-01-03T19:59:04.905Z,13.02
2023-01-03T20:01:50.547Z,12.93
2023-01-03T20:04:19.059Z,12.93
2023-01-03T20:06:45.802Z,12.90
2023-01-03T20:09:12.504Z,12.88
2023-01-03T20:11:39.468Z,12.87
2023-01-03T20:14:06.982Z,12.93
2023-01-03T20:16:33.714Z,12.91
2023-01-03T20:19:00.386Z,12.91
2023-01-03T20:21:29.034Z,12.92
2023-01-03T20:23:56.904Z,12.95
2023-01-03T20:26:24.487Z,12.98
2023-01-03T20:28:51.635Z,12.94
2023-01-03T20:31:20.526Z,13.02
2023-01-03T20:33:47.795Z,13.03
2023-01-03T20:36:23.131Z,12.97
2023-01-03T20:38:52.158Z,12.95
2023-01-03T20:41:18.909Z,12.91
2023-01-03T20:43:45.679Z,13.05
2023-01-03T20:46:19.602Z,13.13
2023-01-03T20:48:49.618Z,13.17
2023-01-03T20:51:16.235Z,13.09
2023-01-03T20:53:43.469Z,13.25
2023-01-03T20:56:12.239Z,13.35
2023-01-03T20:58:38.965Z,13.36
2023-01-03T21:01:09.190Z,13.34
2023-01-03T21:03:36.488Z,13.27
2023-01-03T21:06:03.936Z,13.19
2023-01-03T21:08:30.563Z,13.13
2023-01-03T21:10:57.210Z,13.10
2023-01-03T21:13:23.949Z,13.11
2023-01-03T21:15:50.641Z,13.08
2023-01-03T21:18:17.465Z,13.21
2023-01-03T21:20:44.399Z,13.21
2023-01-03T21:23:21.142Z,13.18
2023-01-03T21:25:48.069Z,13.10
2023-01-03T21:28:14.688Z,13.15
2023-01-03T21:30:41.539Z,13.18
2023-01-03T21:33:17.442Z,13.20
2023-01-03T21:35:44.485Z,13.06
2023-01-03T21:38:11.143Z,13.07
2023-01-03T21:40:37.808Z,13.00
2023-01-03T21:43:05.252Z,13.04
2023-01-03T21:45:39.605Z,13.06
2023-01-03T21:48:07.764Z,13.02
2023-01-03T21:50:34.434Z,13.07
2023-01-03T21:53:01.092Z,13.01
2023-01-03T21:55:27.795Z,13.01
2023-01-03T21:57:54.418Z,12.96
2023-01-03T22:00:21.142Z,13.00
2023-01-03T22:02:47.967Z,12.98
2023-01-03T22:05:14.713Z,13.01
2023-01-03T22:07:41.325Z,13.07
2023-01-03T22:10:08.106Z,13.06
2023-01-03T22:12:34.738Z,13.01
2023-01-03T22:15:01.390Z,13.01
2023-01-03T22:17:28.044Z,13.02
2023-01-03T22:19:56.451Z,13.00
2023-01-03T22:22:24.456Z,12.98
2023-01-03T22:24:51.157Z,12.90
2023-01-03T22:27:17.827Z,12.99
2023-01-03T22:29:44.497Z,13.00
2023-01-03T22:32:11.262Z,13.07
2023-01-03T22:34:38.310Z,13.02
2023-01-03T22:37:07.083Z,13.03
2023-01-03T22:39:33.726Z,13.00
2023-01-03T22:42:00.352Z,13.03
2023-01-03T22:44:29.415Z,12.99
2023-01-03T22:46:56.053Z,12.96
2023-01-03T22:49:22.735Z,13.00
2023-01-03T22:51:50.866Z,12.94
2023-01-03T22:54:17.536Z,12.98
2023-01-03T22:56:44.176Z,13.00
2023-01-03T22:59:10.777Z,13.04
2023-01-03T23:01:37.511Z,12.99
2023-01-03T23:04:04.502Z,13.06
2023-01-03T23:06:31.429Z,13.10
2023-01-03T23:08:58.058Z,13.04
2023-01-03T23:11:31.465Z,13.12
2023-01-03T23:14:01.026Z,12.99
2023-01-03T23:16:27.769Z,12.95
2023-01-03T23:18:54.398Z,13.13
2023-01-03T23:21:21.003Z,13.16
2023-01-03T23:23:50.637Z,13.11
2023-01-03T23:26:17.261Z,13.08
2023-01-03T23:28:44.000Z,13.10
2023-01-03T23:31:10.764Z,13.15
2023-01-03T23:33:37.503Z,13.19
2023-01-03T23:36:05.151Z,13.11
2023-01-03T23:38:31.794Z,13.12
2023-01-03T23:40:58.424Z,13.15
2023-01-03T23:43:25.059Z,13.19
2023-01-03T23:45:51.848Z,13.18
2023-01-03T23:48:18.501Z,13.13
2023-01-03T23:50:45.143Z,13.22
2023-01-03T23:53:11.753Z,13.26
2023-01-03T23:55:38.444Z,13.29
2023-01-03T23:58:05.065Z,13.29
